sensor_id;sensor_type;location;lat;lon;timestamp;P1;durP1;ratioP1;P2;durP2;ratioP2
7493;SDS011;3788;49.902;8.590;2022-12-29T00:00:07;3.20;;;2.30;;
7493;SDS011;3788;49.902;8.590;2022-12-29T00:02:36;2.73;;;2.40;;
7493;SDS011;3788;49.902;8.590;2022-12-29T00:05:03;3.60;;;3.00;;
7493;SDS011;3788;49.902;8.590;2022-12-29T00:07:30;5.03;;;2.30;;
7493;SDS011;3788;49.902;8.590;2022-12-29T00:09:56;2.97;;;2.40;;
7493;SDS011;3788;49.902;8.590;2022-12-29T00:12:23;2.93;;;2.30;;
7493;SDS011;3788;49.902;8.590;2022-12-29T00:14:51;3.53;;;2.37;;
7493;SDS011;3788;49.902;8.590;2022-12-29T00:17:35;2.43;;;2.20;;
7493;SDS011;3788;49.902;8.590;2022-12-29T00:20:02;2.47;;;2.03;;
7493;SDS011;3788;49.902;8.590;2022-12-29T00:22:47;4.80;;;2.70;;
7493;SDS011;3788;49.902;8.590;2022-12-29T00:25:31;3.50;;;2.50;;
7493;SDS011;3788;49.902;8.590;2022-12-29T00:28:15;3.87;;;2.33;;
7493;SDS011;3788;49.902;8.590;2022-12-29T00:31:01;2.40;;;2.10;;
7493;SDS011;3788;49.902;8.590;2022-12-29T00:33:45;4.33;;;2.33;;
7493;SDS011;3788;49.902;8.590;2022-12-29T00:36:30;2.40;;;2.00;;
7493;SDS011;3788;49.902;8.590;2022-12-29T00:38:59;2.47;;;1.93;;
7493;SDS011;3788;49.902;8.590;2022-12-29T00:41:46;3.20;;;2.07;;
7493;SDS011;3788;49.902;8.590;2022-12-29T00:44:30;1.73;;;1.63;;
7493;SDS011;3788;49.902;8.590;2022-12-29T00:46:58;2.03;;;1.40;;
7493;SDS011;3788;49.902;8.590;2022-12-29T00:49:28;1.93;;;1.50;;
7493;SDS011;3788;49.902;8.590;2022-12-29T00:51:57;2.17;;;1.50;;
7493;SDS011;3788;49.902;8.590;2022-12-29T00:54:25;1.87;;;1.40;;
7493;SDS011;3788;49.902;8.590;2022-12-29T00:56:52;1.40;;;1.30;;
7493;SDS011;3788;49.902;8.590;2022-12-29T00:59:19;3.27;;;1.80;;
7493;SDS011;3788;49.902;8.590;2022-12-29T01:01:46;2.30;;;1.40;;
7493;SDS011;3788;49.902;8.590;2022-12-29T01:04:15;2.63;;;1.70;;
7493;SDS011;3788;49.902;8.590;2022-12-29T01:06:42;1.33;;;1.23;;
7493;SDS011;3788;49.902;8.590;2022-12-29T01:09:09;1.60;;;1.27;;
7493;SDS011;3788;49.902;8.590;2022-12-29T01:11:54;1.80;;;1.50;;
7493;SDS011;3788;49.902;8.590;2022-12-29T01:14:21;2.83;;;1.30;;
7493;SDS011;3788;49.902;8.590;2022-12-29T01:16:48;2.37;;;1.13;;
7493;SDS011;3788;49.902;8.590;2022-12-29T01:19:16;1.33;;;1.20;;
7493;SDS011;3788;49.902;8.590;2022-12-29T01:21:44;2.40;;;1.20;;
7493;SDS011;3788;49.902;8.590;2022-12-29T01:24:11;1.10;;;1.00;;
7493;SDS011;3788;49.902;8.590;2022-12-29T01:26:37;1.93;;;1.20;;
7493;SDS011;3788;49.902;8.590;2022-12-29T01:29:04;2.10;;;1.33;;
7493;SDS011;3788;49.902;8.590;2022-12-29T01:31:31;2.00;;;1.20;;
7493;SDS011;3788;49.902;8.590;2022-12-29T01:33:58;2.50;;;1.07;;
7493;SDS011;3788;49.902;8.590;2022-12-29T01:36:26;1.63;;;1.07;;
7493;SDS011;3788;49.902;8.590;2022-12-29T01:38:52;1.57;;;1.43;;
7493;SDS011;3788;49.902;8.590;2022-12-29T01:41:19;1.83;;;1.10;;
7493;SDS011;3788;49.902;8.590;2022-12-29T01:43:47;1.30;;;1.20;;
7493;SDS011;3788;49.902;8.590;2022-12-29T01:46:22;1.40;;;1.00;;
7493;SDS011;3788;49.902;8.590;2022-12-29T01:48:52;1.10;;;1.00;;
7493;SDS011;3788;49.902;8.590;2022-12-29T01:51:24;1.93;;;1.40;;
7493;SDS011;3788;49.902;8.590;2022-12-29T01:53:54;0.90;;;0.90;;
7493;SDS011;3788;49.902;8.590;2022-12-29T01:56:24;1.23;;;1.13;;
7493;SDS011;3788;49.902;8.590;2022-12-29T01:58:52;1.73;;;1.07;;
7493;SDS011;3788;49.902;8.590;2022-12-29T02:01:23;2.50;;;1.20;;
7493;SDS011;3788;49.902;8.590;2022-12-29T02:03:49;3.97;;;1.13;;
7493;SDS011;3788;49.902;8.590;2022-12-29T02:06:18;1.90;;;1.10;;
7493;SDS011;3788;49.902;8.590;2022-12-29T02:08:49;1.37;;;1.27;;
7493;SDS011;3788;49.902;8.590;2022-12-29T02:11:18;1.00;;;0.90;;
7493;SDS011;3788;49.902;8.590;2022-12-29T02:13:46;1.80;;;1.20;;
7493;SDS011;3788;49.902;8.590;2022-12-29T02:16:19;1.50;;;1.10;;
7493;SDS011;3788;49.902;8.590;2022-12-29T02:19:16;2.03;;;1.20;;
7493;SDS011;3788;49.902;8.590;2022-12-29T02:22:18;2.10;;;1.27;;
7493;SDS011;3788;49.902;8.590;2022-12-29T02:24:58;2.03;;;1.20;;
7493;SDS011;3788;49.902;8.590;2022-12-29T02:27:57;0.80;;;0.80;;
7493;SDS011;3788;49.902;8.590;2022-12-29T02:30:40;2.40;;;1.17;;
7493;SDS011;3788;49.902;8.590;2022-12-29T02:33:20;1.60;;;1.10;;
7493;SDS011;3788;49.902;8.590;2022-12-29T02:35:58;1.80;;;1.57;;
7493;SDS011;3788;49.902;8.590;2022-12-29T02:38:38;2.00;;;1.00;;
7493;SDS011;3788;49.902;8.590;2022-12-29T02:41:17;1.10;;;1.00;;
7493;SDS011;3788;49.902;8.590;2022-12-29T02:43:48;1.93;;;1.13;;
7493;SDS011;3788;49.902;8.590;2022-12-29T02:46:22;2.07;;;1.20;;
7493;SDS011;3788;49.902;8.590;2022-12-29T02:48:55;1.20;;;1.00;;
7493;SDS011;3788;49.902;8.590;2022-12-29T02:51:32;3.53;;;1.40;;
7493;SDS011;3788;49.902;8.590;2022-12-29T02:54:03;1.40;;;1.00;;
7493;SDS011;3788;49.902;8.590;2022-12-29T02:56:48;2.00;;;1.00;;
7493;SDS011;3788;49.902;8.590;2022-12-29T02:59:15;1.00;;;0.90;;
7493;SDS011;3788;49.902;8.590;2022-12-29T03:01:50;2.07;;;1.57;;
7493;SDS011;3788;49.902;8.590;2022-12-29T03:04:50;1.00;;;0.90;;
7493;SDS011;3788;49.902;8.590;2022-12-29T03:07:39;1.20;;;1.10;;
7493;SDS011;3788;49.902;8.590;2022-12-29T03:10:15;1.30;;;1.20;;
7493;SDS011;3788;49.902;8.590;2022-12-29T03:12:56;1.40;;;1.10;;
7493;SDS011;3788;49.902;8.590;2022-12-29T03:15:49;1.80;;;1.13;;
7493;SDS011;3788;49.902;8.590;2022-12-29T03:18:30;1.40;;;1.30;;
7493;SDS011;3788;49.902;8.590;2022-12-29T03:21:06;1.00;;;1.00;;
7493;SDS011;3788;49.902;8.590;2022-12-29T03:23:37;2.63;;;1.40;;
7493;SDS011;3788;49.902;8.590;2022-12-29T03:26:06;2.17;;;1.07;;
7493;SDS011;3788;49.902;8.590;2022-12-29T03:28:38;3.43;;;1.10;;
7493;SDS011;3788;49.902;8.590;2022-12-29T03:31:08;1.60;;;1.37;;
7493;SDS011;3788;49.902;8.590;2022-12-29T03:33:38;1.67;;;1.30;;
7493;SDS011;3788;49.902;8.590;2022-12-29T03:36:08;1.20;;;1.10;;
7493;SDS011;3788;49.902;8.590;2022-12-29T03:38:40;2.93;;;1.20;;
7493;SDS011;3788;49.902;8.590;2022-12-29T03:41:10;2.67;;;1.50;;
7493;SDS011;3788;49.902;8.590;2022-12-29T03:43:40;2.00;;;1.00;;
7493;SDS011;3788;49.902;8.590;2022-12-29T03:46:07;1.67;;;1.40;;
7493;SDS011;3788;49.902;8.590;2022-12-29T03:48:34;2.93;;;1.40;;
7493;SDS011;3788;49.902;8.590;2022-12-29T03:51:02;1.50;;;1.40;;
7493;SDS011;3788;49.902;8.590;2022-12-29T03:53:29;1.20;;;1.10;;
7493;SDS011;3788;49.902;8.590;2022-12-29T03:55:55;2.40;;;1.20;;
7493;SDS011;3788;49.902;8.590;2022-12-29T03:58:22;1.93;;;1.33;;
7493;SDS011;3788;49.902;8.590;2022-12-29T04:00:49;2.43;;;1.30;;
7493;SDS011;3788;49.902;8.590;2022-12-29T04:03:15;1.40;;;1.30;;
7493;SDS011;3788;49.902;8.590;2022-12-29T04:05:42;2.47;;;1.33;;
7493;SDS011;3788;49.902;8.590;2022-12-29T04:08:10;2.67;;;1.40;;
7493;SDS011;3788;49.902;8.590;2022-12-29T04:10:37;1.73;;;1.30;;
7493;SDS011;3788;49.902;8.590;2022-12-29T04:13:03;1.50;;;1.40;;
7493;SDS011;3788;49.902;8.590;2022-12-29T04:15:30;2.13;;;1.43;;
7493;SDS011;3788;49.902;8.590;2022-12-29T04:17:57;3.03;;;1.30;;
7493;SDS011;3788;49.902;8.590;2022-12-29T04:20:24;2.73;;;1.20;;
7493;SDS011;3788;49.902;8.590;2022-12-29T04:23:08;1.30;;;1.20;;
7493;SDS011;3788;49.902;8.590;2022-12-29T04:25:36;2.53;;;1.30;;
7493;SDS011;3788;49.902;8.590;2022-12-29T04:28:03;2.57;;;1.50;;
7493;SDS011;3788;49.902;8.590;2022-12-29T04:30:32;5.10;;;1.70;;
7493;SDS011;3788;49.902;8.590;2022-12-29T04:32:59;4.10;;;1.97;;
7493;SDS011;3788;49.902;8.590;2022-12-29T04:35:26;3.60;;;1.80;;
7493;SDS011;3788;49.902;8.590;2022-12-29T04:37:52;1.87;;;1.73;;
7493;SDS011;3788;49.902;8.590;2022-12-29T04:40:20;1.80;;;1.50;;
7493;SDS011;3788;49.902;8.590;2022-12-29T04:42:48;1.33;;;1.20;;
7493;SDS011;3788;49.902;8.590;2022-12-29T04:45:15;3.37;;;1.17;;
7493;SDS011;3788;49.902;8.590;2022-12-29T04:47:42;2.80;;;1.30;;
7493;SDS011;3788;49.902;8.590;2022-12-29T04:50:08;1.40;;;1.20;;
7493;SDS011;3788;49.902;8.590;2022-12-29T04:52:35;1.33;;;1.10;;
7493;SDS011;3788;49.902;8.590;2022-12-29T04:55:03;2.23;;;1.53;;
7493;SDS011;3788;49.902;8.590;2022-12-29T04:57:32;2.40;;;1.30;;
7493;SDS011;3788;49.902;8.590;2022-12-29T04:59:59;1.83;;;1.40;;
7493;SDS011;3788;49.902;8.590;2022-12-29T05:02:26;3.13;;;1.80;;
7493;SDS011;3788;49.902;8.590;2022-12-29T05:04:52;3.53;;;1.70;;
7493;SDS011;3788;49.902;8.590;2022-12-29T05:07:19;3.23;;;1.40;;
7493;SDS011;3788;49.902;8.590;2022-12-29T05:09:46;2.60;;;1.57;;
7493;SDS011;3788;49.902;8.590;2022-12-29T05:12:12;1.73;;;1.63;;
7493;SDS011;3788;49.902;8.590;2022-12-29T05:14:41;1.63;;;1.53;;
7493;SDS011;3788;49.902;8.590;2022-12-29T05:17:07;1.10;;;1.03;;
7493;SDS011;3788;49.902;8.590;2022-12-29T05:19:34;2.20;;;1.17;;
7493;SDS011;3788;49.902;8.590;2022-12-29T05:22:03;1.53;;;1.10;;
7493;SDS011;3788;49.902;8.590;2022-12-29T05:24:30;2.43;;;1.17;;
7493;SDS011;3788;49.902;8.590;2022-12-29T05:26:57;1.00;;;1.00;;
7493;SDS011;3788;49.902;8.590;2022-12-29T05:29:24;2.00;;;1.27;;
7493;SDS011;3788;49.902;8.590;2022-12-29T05:31:52;1.20;;;1.10;;
7493;SDS011;3788;49.902;8.590;2022-12-29T05:34:19;2.30;;;1.57;;
7493;SDS011;3788;49.902;8.590;2022-12-29T05:36:46;2.40;;;1.40;;
7493;SDS011;3788;49.902;8.590;2022-12-29T05:39:12;1.53;;;0.93;;
7493;SDS011;3788;49.902;8.590;2022-12-29T05:41:39;1.93;;;1.03;;
7493;SDS011;3788;49.902;8.590;2022-12-29T05:44:06;1.00;;;0.90;;
7493;SDS011;3788;49.902;8.590;2022-12-29T05:46:32;1.07;;;0.97;;
7493;SDS011;3788;49.902;8.590;2022-12-29T05:49:00;1.00;;;1.00;;
7493;SDS011;3788;49.902;8.590;2022-12-29T05:51:27;0.90;;;0.90;;
7493;SDS011;3788;49.902;8.590;2022-12-29T05:53:54;1.23;;;1.13;;
7493;SDS011;3788;49.902;8.590;2022-12-29T05:56:20;1.10;;;1.00;;
7493;SDS011;3788;49.902;8.590;2022-12-29T05:58:47;1.30;;;1.10;;
7493;SDS011;3788;49.902;8.590;2022-12-29T06:01:14;1.77;;;1.37;;
7493;SDS011;3788;49.902;8.590;2022-12-29T06:03:41;2.20;;;1.40;;
7493;SDS011;3788;49.902;8.590;2022-12-29T06:06:09;2.10;;;1.10;;
7493;SDS011;3788;49.902;8.590;2022-12-29T06:08:36;1.00;;;1.00;;
7493;SDS011;3788;49.902;8.590;2022-12-29T06:11:03;1.50;;;1.00;;
7493;SDS011;3788;49.902;8.590;2022-12-29T06:13:29;1.13;;;1.07;;
7493;SDS011;3788;49.902;8.590;2022-12-29T06:15:56;2.30;;;1.03;;
7493;SDS011;3788;49.902;8.590;2022-12-29T06:18:23;2.00;;;0.97;;
7493;SDS011;3788;49.902;8.590;2022-12-29T06:20:49;1.17;;;1.07;;
7493;SDS011;3788;49.902;8.590;2022-12-29T06:23:17;2.60;;;1.03;;
7493;SDS011;3788;49.902;8.590;2022-12-29T06:25:44;1.27;;;1.00;;
7493;SDS011;3788;49.902;8.590;2022-12-29T06:28:12;2.03;;;1.20;;
7493;SDS011;3788;49.902;8.590;2022-12-29T06:30:39;2.43;;;1.07;;
7493;SDS011;3788;49.902;8.590;2022-12-29T06:33:08;1.40;;;1.30;;
7493;SDS011;3788;49.902;8.590;2022-12-29T06:35:36;2.73;;;1.10;;
7493;SDS011;3788;49.902;8.590;2022-12-29T06:38:03;1.03;;;0.93;;
7493;SDS011;3788;49.902;8.590;2022-12-29T06:40:31;4.43;;;1.73;;
7493;SDS011;3788;49.902;8.590;2022-12-29T06:42:58;1.67;;;1.07;;
7493;SDS011;3788;49.902;8.590;2022-12-29T06:45:25;2.63;;;1.70;;
7493;SDS011;3788;49.902;8.590;2022-12-29T06:47:51;2.57;;;1.30;;
7493;SDS011;3788;49.902;8.590;2022-12-29T06:50:18;2.23;;;1.33;;
7493;SDS011;3788;49.902;8.590;2022-12-29T06:52:45;1.73;;;1.40;;
7493;SDS011;3788;49.902;8.590;2022-12-29T06:55:11;1.40;;;1.10;;
7493;SDS011;3788;49.902;8.590;2022-12-29T06:57:40;3.27;;;1.20;;
7493;SDS011;3788;49.902;8.590;2022-12-29T07:00:07;1.50;;;1.30;;
7493;SDS011;3788;49.902;8.590;2022-12-29T07:02:35;1.77;;;1.37;;
7493;SDS011;3788;49.902;8.590;2022-12-29T07:05:02;1.40;;;1.30;;
7493;SDS011;3788;49.902;8.590;2022-12-29T07:07:28;2.17;;;1.50;;
7493;SDS011;3788;49.902;8.590;2022-12-29T07:09:55;1.70;;;1.30;;
7493;SDS011;3788;49.902;8.590;2022-12-29T07:12:22;1.40;;;1.30;;
7493;SDS011;3788;49.902;8.590;2022-12-29T07:14:50;1.20;;;1.20;;
7493;SDS011;3788;49.902;8.590;2022-12-29T07:17:17;3.13;;;1.50;;
7493;SDS011;3788;49.902;8.590;2022-12-29T07:19:43;1.40;;;1.30;;
7493;SDS011;3788;49.902;8.590;2022-12-29T07:22:10;2.80;;;1.30;;
7493;SDS011;3788;49.902;8.590;2022-12-29T07:24:37;4.53;;;1.70;;
7493;SDS011;3788;49.902;8.590;2022-12-29T07:27:04;1.97;;;1.37;;
7493;SDS011;3788;49.902;8.590;2022-12-29T07:29:31;3.17;;;1.93;;
7493;SDS011;3788;49.902;8.590;2022-12-29T07:31:59;1.57;;;1.40;;
7493;SDS011;3788;49.902;8.590;2022-12-29T07:34:25;2.07;;;1.50;;
7493;SDS011;3788;49.902;8.590;2022-12-29T07:36:52;3.53;;;1.20;;
7493;SDS011;3788;49.902;8.590;2022-12-29T07:39:18;1.67;;;1.37;;
7493;SDS011;3788;49.902;8.590;2022-12-29T07:41:45;2.60;;;1.50;;
7493;SDS011;3788;49.902;8.590;2022-12-29T07:44:12;2.70;;;1.43;;
7493;SDS011;3788;49.902;8.590;2022-12-29T07:46:38;1.83;;;1.73;;
7493;SDS011;3788;49.902;8.590;2022-12-29T07:49:07;2.30;;;1.83;;
7493;SDS011;3788;49.902;8.590;2022-12-29T07:51:33;4.63;;;1.83;;
7493;SDS011;3788;49.902;8.590;2022-12-29T07:54:01;3.73;;;1.73;;
7493;SDS011;3788;49.902;8.590;2022-12-29T07:56:28;2.60;;;1.80;;
7493;SDS011;3788;49.902;8.590;2022-12-29T07:58:54;2.57;;;2.20;;
7493;SDS011;3788;49.902;8.590;2022-12-29T08:01:21;2.00;;;1.53;;
7493;SDS011;3788;49.902;8.590;2022-12-29T08:03:49;2.60;;;1.50;;
7493;SDS011;3788;49.902;8.590;2022-12-29T08:06:17;2.30;;;1.40;;
7493;SDS011;3788;49.902;8.590;2022-12-29T08:08:45;2.50;;;1.63;;
7493;SDS011;3788;49.902;8.590;2022-12-29T08:11:12;2.47;;;1.73;;
7493;SDS011;3788;49.902;8.590;2022-12-29T08:13:41;1.90;;;1.43;;
7493;SDS011;3788;49.902;8.590;2022-12-29T08:16:08;1.60;;;1.30;;
7493;SDS011;3788;49.902;8.590;2022-12-29T08:18:35;3.20;;;1.53;;
7493;SDS011;3788;49.902;8.590;2022-12-29T08:21:02;1.50;;;1.20;;
7493;SDS011;3788;49.902;8.590;2022-12-29T08:23:30;2.07;;;1.50;;
7493;SDS011;3788;49.902;8.590;2022-12-29T08:25:57;3.17;;;1.30;;
7493;SDS011;3788;49.902;8.590;2022-12-29T08:28:24;3.00;;;1.50;;
7493;SDS011;3788;49.902;8.590;2022-12-29T08:30:52;3.80;;;2.03;;
7493;SDS011;3788;49.902;8.590;2022-12-29T08:33:20;2.53;;;1.70;;
7493;SDS011;3788;49.902;8.590;2022-12-29T08:35:46;2.80;;;1.97;;
7493;SDS011;3788;49.902;8.590;2022-12-29T08:38:14;4.17;;;2.17;;
7493;SDS011;3788;49.902;8.590;2022-12-29T08:40:45;4.13;;;1.70;;
7493;SDS011;3788;49.902;8.590;2022-12-29T08:43:12;1.83;;;1.70;;
7493;SDS011;3788;49.902;8.590;2022-12-29T08:45:39;2.67;;;1.60;;
7493;SDS011;3788;49.902;8.590;2022-12-29T08:48:05;2.13;;;1.60;;
7493;SDS011;3788;49.902;8.590;2022-12-29T08:50:32;3.53;;;1.80;;
7493;SDS011;3788;49.902;8.590;2022-12-29T08:52:59;2.17;;;1.50;;
7493;SDS011;3788;49.902;8.590;2022-12-29T08:55:26;3.90;;;1.90;;
7493;SDS011;3788;49.902;8.590;2022-12-29T08:57:54;2.93;;;2.07;;
7493;SDS011;3788;49.902;8.590;2022-12-29T09:00:21;2.40;;;2.20;;
7493;SDS011;3788;49.902;8.590;2022-12-29T09:02:48;3.47;;;1.50;;
7493;SDS011;3788;49.902;8.590;2022-12-29T09:05:15;2.53;;;1.80;;
7493;SDS011;3788;49.902;8.590;2022-12-29T09:07:42;2.60;;;1.97;;
7493;SDS011;3788;49.902;8.590;2022-12-29T09:10:09;3.03;;;1.80;;
7493;SDS011;3788;49.902;8.590;2022-12-29T09:12:35;4.30;;;2.20;;
7493;SDS011;3788;49.902;8.590;2022-12-29T09:15:04;2.57;;;1.90;;
7493;SDS011;3788;49.902;8.590;2022-12-29T09:17:33;2.90;;;2.37;;
7493;SDS011;3788;49.902;8.590;2022-12-29T09:20:09;2.87;;;2.10;;
7493;SDS011;3788;49.902;8.590;2022-12-29T09:22:36;1.80;;;1.60;;
7493;SDS011;3788;49.902;8.590;2022-12-29T09:25:05;3.03;;;1.70;;
7493;SDS011;3788;49.902;8.590;2022-12-29T09:27:32;3.37;;;2.07;;
7493;SDS011;3788;49.902;8.590;2022-12-29T09:30:00;2.90;;;2.33;;
7493;SDS011;3788;49.902;8.590;2022-12-29T09:32:29;3.33;;;1.90;;
7493;SDS011;3788;49.902;8.590;2022-12-29T09:34:56;3.83;;;1.90;;
7493;SDS011;3788;49.902;8.590;2022-12-29T09:37:22;3.17;;;1.80;;
7493;SDS011;3788;49.902;8.590;2022-12-29T09:39:50;3.10;;;1.90;;
7493;SDS011;3788;49.902;8.590;2022-12-29T09:42:18;3.83;;;2.10;;
7493;SDS011;3788;49.902;8.590;2022-12-29T09:44:54;2.03;;;1.53;;
7493;SDS011;3788;49.902;8.590;2022-12-29T09:47:32;1.97;;;1.77;;
7493;SDS011;3788;49.902;8.590;2022-12-29T09:50:00;2.83;;;2.00;;
7493;SDS011;3788;49.902;8.590;2022-12-29T09:52:32;4.50;;;2.37;;
7493;SDS011;3788;49.902;8.590;2022-12-29T09:55:10;4.20;;;2.00;;
7493;SDS011;3788;49.902;8.590;2022-12-29T09:57:40;3.93;;;2.30;;
7493;SDS011;3788;49.902;8.590;2022-12-29T10:00:12;4.20;;;2.47;;
7493;SDS011;3788;49.902;8.590;2022-12-29T10:02:44;2.37;;;1.97;;
7493;SDS011;3788;49.902;8.590;2022-12-29T10:05:18;3.30;;;1.90;;
7493;SDS011;3788;49.902;8.590;2022-12-29T10:07:55;2.97;;;1.80;;
7493;SDS011;3788;49.902;8.590;2022-12-29T10:10:35;2.67;;;1.70;;
7493;SDS011;3788;49.902;8.590;2022-12-29T10:13:09;3.90;;;2.13;;
7493;SDS011;3788;49.902;8.590;2022-12-29T10:15:49;2.00;;;1.80;;
7493;SDS011;3788;49.902;8.590;2022-12-29T10:18:37;2.53;;;1.80;;
7493;SDS011;3788;49.902;8.590;2022-12-29T10:21:24;2.67;;;2.27;;
7493;SDS011;3788;49.902;8.590;2022-12-29T10:24:03;3.37;;;1.87;;
7493;SDS011;3788;49.902;8.590;2022-12-29T10:26:36;3.77;;;2.00;;
7493;SDS011;3788;49.902;8.590;2022-12-29T10:29:06;3.57;;;1.70;;
7493;SDS011;3788;49.902;8.590;2022-12-29T10:31:40;2.10;;;1.30;;
7493;SDS011;3788;49.902;8.590;2022-12-29T10:34:14;1.73;;;1.17;;
7493;SDS011;3788;49.902;8.590;2022-12-29T10:36:47;0.97;;;0.90;;
7493;SDS011;3788;49.902;8.590;2022-12-29T10:39:20;3.33;;;1.00;;
7493;SDS011;3788;49.902;8.590;2022-12-29T10:41:55;1.07;;;0.93;;
7493;SDS011;3788;49.902;8.590;2022-12-29T10:44:27;2.07;;;1.10;;
7493;SDS011;3788;49.902;8.590;2022-12-29T10:46:57;1.80;;;1.20;;
7493;SDS011;3788;49.902;8.590;2022-12-29T10:49:30;3.23;;;1.57;;
7493;SDS011;3788;49.902;8.590;2022-12-29T10:52:02;1.80;;;1.70;;
7493;SDS011;3788;49.902;8.590;2022-12-29T10:54:32;2.93;;;1.50;;
7493;SDS011;3788;49.902;8.590;2022-12-29T10:57:05;4.33;;;1.77;;
7493;SDS011;3788;49.902;8.590;2022-12-29T10:59:36;2.03;;;1.80;;
7493;SDS011;3788;49.902;8.590;2022-12-29T11:05:01;1.60;;;1.47;;
7493;SDS011;3788;49.902;8.590;2022-12-29T11:07:34;1.70;;;1.60;;
7493;SDS011;3788;49.902;8.590;2022-12-29T11:10:17;1.50;;;1.40;;
7493;SDS011;3788;49.902;8.590;2022-12-29T11:12:55;1.40;;;1.30;;
7493;SDS011;3788;49.902;8.590;2022-12-29T11:15:23;1.80;;;1.60;;
7493;SDS011;3788;49.902;8.590;2022-12-29T11:17:51;1.97;;;1.57;;
7493;SDS011;3788;49.902;8.590;2022-12-29T11:20:24;2.20;;;1.60;;
7493;SDS011;3788;49.902;8.590;2022-12-29T11:22:54;2.33;;;1.67;;
7493;SDS011;3788;49.902;8.590;2022-12-29T11:25:22;1.83;;;1.57;;
7493;SDS011;3788;49.902;8.590;2022-12-29T11:27:54;1.93;;;1.40;;
7493;SDS011;3788;49.902;8.590;2022-12-29T11:30:22;3.90;;;2.23;;
7493;SDS011;3788;49.902;8.590;2022-12-29T11:32:50;3.30;;;1.77;;
7493;SDS011;3788;49.902;8.590;2022-12-29T11:35:29;1.53;;;1.20;;
7493;SDS011;3788;49.902;8.590;2022-12-29T11:37:57;1.30;;;1.20;;
7493;SDS011;3788;49.902;8.590;2022-12-29T11:40:26;3.60;;;1.70;;
7493;SDS011;3788;49.902;8.590;2022-12-29T11:42:53;4.20;;;2.03;;
7493;SDS011;3788;49.902;8.590;2022-12-29T11:45:23;3.57;;;2.00;;
7493;SDS011;3788;49.902;8.590;2022-12-29T11:47:52;1.90;;;1.27;;
7493;SDS011;3788;49.902;8.590;2022-12-29T11:50:21;1.57;;;1.13;;
7493;SDS011;3788;49.902;8.590;2022-12-29T11:52:57;2.57;;;1.37;;
7493;SDS011;3788;49.902;8.590;2022-12-29T11:55:26;2.90;;;1.40;;
7493;SDS011;3788;49.902;8.590;2022-12-29T11:57:55;1.90;;;1.13;;
7493;SDS011;3788;49.902;8.590;2022-12-29T12:00:24;1.30;;;1.20;;
7493;SDS011;3788;49.902;8.590;2022-12-29T12:02:53;1.10;;;1.00;;
7493;SDS011;3788;49.902;8.590;2022-12-29T12:05:26;1.97;;;0.90;;
7493;SDS011;3788;49.902;8.590;2022-12-29T12:08:01;3.40;;;1.50;;
7493;SDS011;3788;49.902;8.590;2022-12-29T12:10:32;1.17;;;1.07;;
7493;SDS011;3788;49.902;8.590;2022-12-29T12:13:05;0.93;;;0.87;;
7493;SDS011;3788;49.902;8.590;2022-12-29T12:15:41;4.10;;;1.20;;
7493;SDS011;3788;49.902;8.590;2022-12-29T12:18:11;1.20;;;1.10;;
7493;SDS011;3788;49.902;8.590;2022-12-29T12:20:45;1.40;;;1.13;;
7493;SDS011;3788;49.902;8.590;2022-12-29T12:23:18;1.40;;;1.30;;
7493;SDS011;3788;49.902;8.590;2022-12-29T12:25:55;1.27;;;1.17;;
7493;SDS011;3788;49.902;8.590;2022-12-29T12:28:26;1.30;;;1.20;;
7493;SDS011;3788;49.902;8.590;2022-12-29T12:31:02;2.40;;;1.80;;
7493;SDS011;3788;49.902;8.590;2022-12-29T12:33:40;2.03;;;1.40;;
7493;SDS011;3788;49.902;8.590;2022-12-29T12:36:17;2.77;;;1.20;;
7493;SDS011;3788;49.902;8.590;2022-12-29T12:38:54;2.70;;;1.53;;
7493;SDS011;3788;49.902;8.590;2022-12-29T12:41:30;3.13;;;1.57;;
7493;SDS011;3788;49.902;8.590;2022-12-29T12:44:10;2.47;;;1.50;;
7493;SDS011;3788;49.902;8.590;2022-12-29T12:46:51;3.97;;;1.57;;
7493;SDS011;3788;49.902;8.590;2022-12-29T12:49:47;2.27;;;1.33;;
7493;SDS011;3788;49.902;8.590;2022-12-29T12:52:33;1.57;;;1.27;;
7493;SDS011;3788;49.902;8.590;2022-12-29T12:55:30;1.83;;;1.40;;
7493;SDS011;3788;49.902;8.590;2022-12-29T12:58:09;3.67;;;1.53;;
7493;SDS011;3788;49.902;8.590;2022-12-29T13:00:46;1.80;;;1.20;;
7493;SDS011;3788;49.902;8.590;2022-12-29T13:03:25;3.10;;;1.47;;
7493;SDS011;3788;49.902;8.590;2022-12-29T13:06:04;1.23;;;1.13;;
7493;SDS011;3788;49.902;8.590;2022-12-29T13:08:50;3.90;;;1.70;;
7493;SDS011;3788;49.902;8.590;2022-12-29T13:11:34;2.00;;;1.37;;
7493;SDS011;3788;49.902;8.590;2022-12-29T13:14:16;3.27;;;1.20;;
7493;SDS011;3788;49.902;8.590;2022-12-29T13:16:52;1.60;;;1.20;;
7493;SDS011;3788;49.902;8.590;2022-12-29T13:19:26;1.97;;;1.43;;
7493;SDS011;3788;49.902;8.590;2022-12-29T13:22:00;2.17;;;1.40;;
7493;SDS011;3788;49.902;8.590;2022-12-29T13:24:34;1.77;;;1.33;;
7493;SDS011;3788;49.902;8.590;2022-12-29T13:27:13;1.40;;;1.10;;
7493;SDS011;3788;49.902;8.590;2022-12-29T13:29:47;1.30;;;1.20;;
7493;SDS011;3788;49.902;8.590;2022-12-29T13:32:23;2.00;;;1.10;;
7493;SDS011;3788;49.902;8.590;2022-12-29T13:35:04;1.93;;;1.43;;
7493;SDS011;3788;49.902;8.590;2022-12-29T13:37:51;2.23;;;1.27;;
7493;SDS011;3788;49.902;8.590;2022-12-29T13:40:23;1.93;;;1.50;;
7493;SDS011;3788;49.902;8.590;2022-12-29T13:42:52;1.00;;;0.90;;
7493;SDS011;3788;49.902;8.590;2022-12-29T13:45:21;1.33;;;1.27;;
7493;SDS011;3788;49.902;8.590;2022-12-29T13:47:52;1.57;;;1.33;;
7493;SDS011;3788;49.902;8.590;2022-12-29T13:50:26;3.73;;;1.40;;
7493;SDS011;3788;49.902;8.590;2022-12-29T13:52:58;1.60;;;1.10;;
7493;SDS011;3788;49.902;8.590;2022-12-29T13:55:35;1.73;;;1.03;;
7493;SDS011;3788;49.902;8.590;2022-12-29T13:58:08;3.67;;;1.20;;
7493;SDS011;3788;49.902;8.590;2022-12-29T14:00:44;1.43;;;1.13;;
7493;SDS011;3788;49.902;8.590;2022-12-29T14:03:19;2.53;;;1.40;;
7493;SDS011;3788;49.902;8.590;2022-12-29T14:06:11;3.17;;;1.17;;
7493;SDS011;3788;49.902;8.590;2022-12-29T14:08:50;1.53;;;0.90;;
7493;SDS011;3788;49.902;8.590;2022-12-29T14:11:24;1.47;;;1.00;;
7493;SDS011;3788;49.902;8.590;2022-12-29T14:13:57;2.13;;;1.20;;
7493;SDS011;3788;49.902;8.590;2022-12-29T14:16:25;1.70;;;1.40;;
7493;SDS011;3788;49.902;8.590;2022-12-29T14:18:54;1.87;;;1.17;;
7493;SDS011;3788;49.902;8.590;2022-12-29T14:21:23;4.30;;;1.83;;
7493;SDS011;3788;49.902;8.590;2022-12-29T14:23:56;1.73;;;1.20;;
7493;SDS011;3788;49.902;8.590;2022-12-29T14:26:43;3.30;;;1.57;;
7493;SDS011;3788;49.902;8.590;2022-12-29T14:38:14;2.97;;;1.20;;
7493;SDS011;3788;49.902;8.590;2022-12-29T14:40:43;3.53;;;1.57;;
7493;SDS011;3788;49.902;8.590;2022-12-29T14:43:19;3.77;;;3.37;;
7493;SDS011;3788;49.902;8.590;2022-12-29T14:45:51;5.00;;;2.33;;
7493;SDS011;3788;49.902;8.590;2022-12-29T14:48:21;1.67;;;1.37;;
7493;SDS011;3788;49.902;8.590;2022-12-29T14:50:59;2.27;;;1.27;;
7493;SDS011;3788;49.902;8.590;2022-12-29T14:53:43;2.00;;;1.07;;
7493;SDS011;3788;49.902;8.590;2022-12-29T14:56:12;3.57;;;1.30;;
7493;SDS011;3788;49.902;8.590;2022-12-29T14:58:45;2.47;;;1.17;;
7493;SDS011;3788;49.902;8.590;2022-12-29T15:01:19;2.33;;;1.00;;
7493;SDS011;3788;49.902;8.590;2022-12-29T15:03:50;2.77;;;1.13;;
7493;SDS011;3788;49.902;8.590;2022-12-29T15:06:20;2.87;;;1.40;;
7493;SDS011;3788;49.902;8.590;2022-12-29T15:08:51;2.03;;;1.40;;
7493;SDS011;3788;49.902;8.590;2022-12-29T15:11:21;4.40;;;1.60;;
7493;SDS011;3788;49.902;8.590;2022-12-29T15:13:50;1.90;;;1.33;;
7493;SDS011;3788;49.902;8.590;2022-12-29T15:16:22;1.83;;;1.30;;
7493;SDS011;3788;49.902;8.590;2022-12-29T15:18:51;2.37;;;1.00;;
7493;SDS011;3788;49.902;8.590;2022-12-29T15:21:19;1.57;;;1.10;;
7493;SDS011;3788;49.902;8.590;2022-12-29T15:23:50;1.63;;;1.00;;
7493;SDS011;3788;49.902;8.590;2022-12-29T15:26:17;3.13;;;1.40;;
7493;SDS011;3788;49.902;8.590;2022-12-29T15:28:47;3.03;;;1.50;;
7493;SDS011;3788;49.902;8.590;2022-12-29T15:31:17;3.73;;;1.80;;
7493;SDS011;3788;49.902;8.590;2022-12-29T15:33:46;4.30;;;3.07;;
7493;SDS011;3788;49.902;8.590;2022-12-29T15:36:16;3.97;;;2.57;;
7493;SDS011;3788;49.902;8.590;2022-12-29T15:38:46;3.37;;;1.93;;
7493;SDS011;3788;49.902;8.590;2022-12-29T15:41:21;3.00;;;1.83;;
7493;SDS011;3788;49.902;8.590;2022-12-29T15:43:53;2.97;;;2.30;;
7493;SDS011;3788;49.902;8.590;2022-12-29T15:46:35;3.80;;;1.60;;
7493;SDS011;3788;49.902;8.590;2022-12-29T15:49:04;5.37;;;1.70;;
7493;SDS011;3788;49.902;8.590;2022-12-29T15:51:35;3.13;;;1.80;;